sensor_id;sensor_type;location;lat;lon;timestamp;P1;durP1;ratioP1;P2;durP2;ratioP2
75655;SDS011;64252;51.094;13.714;2023-03-05T00:00:36;8.63;;;1.75;;
75655;SDS011;64252;51.094;13.714;2023-03-05T00:03:02;6.57;;;1.45;;
75655;SDS011;64252;51.094;13.714;2023-03-05T00:05:28;9.07;;;1.23;;
75655;SDS011;64252;51.094;13.714;2023-03-05T00:07:53;8.80;;;1.50;;
75655;SDS011;64252;51.094;13.714;2023-03-05T00:10:20;8.23;;;1.90;;
75655;SDS011;64252;51.094;13.714;2023-03-05T00:12:45;11.82;;;2.05;;
75655;SDS011;64252;51.094;13.714;2023-03-05T00:15:11;11.07;;;2.88;;
75655;SDS011;64252;51.094;13.714;2023-03-05T00:17:37;9.05;;;1.92;;
75655;SDS011;64252;51.094;13.714;2023-03-05T00:20:02;9.80;;;1.40;;
75655;SDS011;64252;51.094;13.714;2023-03-05T00:22:28;7.25;;;1.20;;
75655;SDS011;64252;51.094;13.714;2023-03-05T00:24:55;10.07;;;1.85;;
75655;SDS011;64252;51.094;13.714;2023-03-05T00:27:20;10.38;;;1.73;;
75655;SDS011;64252;51.094;13.714;2023-03-05T00:29:46;6.55;;;1.60;;
75655;SDS011;64252;51.094;13.714;2023-03-05T00:32:11;5.40;;;1.20;;
75655;SDS011;64252;51.094;13.714;2023-03-05T00:34:37;12.35;;;2.10;;
75655;SDS011;64252;51.094;13.714;2023-03-05T00:37:02;9.90;;;2.47;;
75655;SDS011;64252;51.094;13.714;2023-03-05T00:39:30;8.65;;;2.28;;
75655;SDS011;64252;51.094;13.714;2023-03-05T00:41:56;8.65;;;2.22;;
75655;SDS011;64252;51.094;13.714;2023-03-05T00:44:21;12.90;;;2.85;;
75655;SDS011;64252;51.094;13.714;2023-03-05T00:46:48;11.63;;;2.30;;
75655;SDS011;64252;51.094;13.714;2023-03-05T00:49:14;10.75;;;2.15;;
75655;SDS011;64252;51.094;13.714;2023-03-05T00:51:39;10.23;;;1.55;;
75655;SDS011;64252;51.094;13.714;2023-03-05T00:54:05;15.98;;;2.92;;
75655;SDS011;64252;51.094;13.714;2023-03-05T00:56:31;9.50;;;1.60;;
75655;SDS011;64252;51.094;13.714;2023-03-05T00:58:57;9.38;;;1.60;;
75655;SDS011;64252;51.094;13.714;2023-03-05T01:01:23;13.07;;;2.67;;
75655;SDS011;64252;51.094;13.714;2023-03-05T01:03:48;13.88;;;3.05;;
75655;SDS011;64252;51.094;13.714;2023-03-05T01:06:14;10.80;;;2.85;;
75655;SDS011;64252;51.094;13.714;2023-03-05T01:08:43;5.10;;;1.67;;
75655;SDS011;64252;51.094;13.714;2023-03-05T01:11:09;10.88;;;1.83;;
75655;SDS011;64252;51.094;13.714;2023-03-05T01:13:35;6.78;;;1.38;;
75655;SDS011;64252;51.094;13.714;2023-03-05T01:16:01;8.55;;;1.42;;
75655;SDS011;64252;51.094;13.714;2023-03-05T01:18:28;6.18;;;1.45;;
75655;SDS011;64252;51.094;13.714;2023-03-05T01:20:54;10.90;;;1.92;;
75655;SDS011;64252;51.094;13.714;2023-03-05T01:23:21;10.40;;;1.20;;
75655;SDS011;64252;51.094;13.714;2023-03-05T01:25:54;12.07;;;2.10;;
75655;SDS011;64252;51.094;13.714;2023-03-05T01:28:21;12.55;;;1.45;;
75655;SDS011;64252;51.094;13.714;2023-03-05T01:30:48;6.95;;;1.45;;
75655;SDS011;64252;51.094;13.714;2023-03-05T01:33:14;9.18;;;1.50;;
75655;SDS011;64252;51.094;13.714;2023-03-05T01:35:41;9.68;;;1.55;;
75655;SDS011;64252;51.094;13.714;2023-03-05T01:38:06;10.63;;;1.73;;
75655;SDS011;64252;51.094;13.714;2023-03-05T01:40:32;9.60;;;1.55;;
75655;SDS011;64252;51.094;13.714;2023-03-05T01:43:41;10.65;;;1.80;;
75655;SDS011;64252;51.094;13.714;2023-03-05T01:49:12;11.25;;;1.58;;
75655;SDS011;64252;51.094;13.714;2023-03-05T01:54:25;11.13;;;1.35;;
75655;SDS011;64252;51.094;13.714;2023-03-05T01:57:06;8.00;;;1.60;;
75655;SDS011;64252;51.094;13.714;2023-03-05T01:59:38;10.80;;;1.23;;
75655;SDS011;64252;51.094;13.714;2023-03-05T02:02:07;7.45;;;1.33;;
75655;SDS011;64252;51.094;13.714;2023-03-05T02:04:36;9.00;;;1.20;;
75655;SDS011;64252;51.094;13.714;2023-03-05T02:07:15;3.78;;;0.80;;
75655;SDS011;64252;51.094;13.714;2023-03-05T02:09:42;8.65;;;1.20;;
75655;SDS011;64252;51.094;13.714;2023-03-05T02:12:08;5.63;;;1.33;;
75655;SDS011;64252;51.094;13.714;2023-03-05T02:14:36;8.85;;;1.58;;
75655;SDS011;64252;51.094;13.714;2023-03-05T02:17:04;7.43;;;1.30;;
75655;SDS011;64252;51.094;13.714;2023-03-05T02:19:44;4.95;;;1.17;;
75655;SDS011;64252;51.094;13.714;2023-03-05T02:22:18;9.52;;;1.50;;
75655;SDS011;64252;51.094;13.714;2023-03-05T02:24:45;9.85;;;1.67;;
75655;SDS011;64252;51.094;13.714;2023-03-05T02:27:11;14.43;;;1.55;;
75655;SDS011;64252;51.094;13.714;2023-03-05T02:29:39;6.40;;;1.20;;
75655;SDS011;64252;51.094;13.714;2023-03-05T02:32:07;8.65;;;1.05;;
75655;SDS011;64252;51.094;13.714;2023-03-05T02:34:34;12.75;;;1.30;;
75655;SDS011;64252;51.094;13.714;2023-03-05T02:37:00;6.47;;;1.70;;
75655;SDS011;64252;51.094;13.714;2023-03-05T02:39:29;8.85;;;1.58;;
75655;SDS011;64252;51.094;13.714;2023-03-05T02:41:58;7.57;;;1.33;;
75655;SDS011;64252;51.094;13.714;2023-03-05T02:44:26;7.00;;;1.70;;
75655;SDS011;64252;51.094;13.714;2023-03-05T02:46:52;8.02;;;1.55;;
75655;SDS011;64252;51.094;13.714;2023-03-05T02:49:17;8.05;;;2.40;;
75655;SDS011;64252;51.094;13.714;2023-03-05T02:51:43;6.93;;;1.02;;
75655;SDS011;64252;51.094;13.714;2023-03-05T02:54:09;7.05;;;1.60;;
75655;SDS011;64252;51.094;13.714;2023-03-05T02:56:34;7.40;;;1.33;;
75655;SDS011;64252;51.094;13.714;2023-03-05T02:59:02;5.03;;;1.08;;
75655;SDS011;64252;51.094;13.714;2023-03-05T03:01:28;9.68;;;1.35;;
75655;SDS011;64252;51.094;13.714;2023-03-05T03:03:54;9.38;;;1.30;;
75655;SDS011;64252;51.094;13.714;2023-03-05T03:06:21;15.18;;;1.70;;
75655;SDS011;64252;51.094;13.714;2023-03-05T03:08:46;15.38;;;2.03;;
75655;SDS011;64252;51.094;13.714;2023-03-05T03:11:12;6.80;;;1.38;;
75655;SDS011;64252;51.094;13.714;2023-03-05T03:13:38;8.50;;;1.65;;
75655;SDS011;64252;51.094;13.714;2023-03-05T03:16:08;7.00;;;1.20;;
75655;SDS011;64252;51.094;13.714;2023-03-05T03:18:36;4.57;;;1.20;;
75655;SDS011;64252;51.094;13.714;2023-03-05T03:21:02;11.18;;;2.30;;
75655;SDS011;64252;51.094;13.714;2023-03-05T03:23:29;6.45;;;1.15;;
75655;SDS011;64252;51.094;13.714;2023-03-05T03:25:56;6.82;;;1.10;;
75655;SDS011;64252;51.094;13.714;2023-03-05T03:28:23;7.55;;;1.40;;
75655;SDS011;64252;51.094;13.714;2023-03-05T03:30:49;9.05;;;1.65;;
75655;SDS011;64252;51.094;13.714;2023-03-05T03:33:15;8.73;;;1.30;;
75655;SDS011;64252;51.094;13.714;2023-03-05T03:35:43;6.25;;;1.20;;
75655;SDS011;64252;51.094;13.714;2023-03-05T03:38:10;6.38;;;1.45;;
75655;SDS011;64252;51.094;13.714;2023-03-05T03:40:38;3.78;;;0.75;;
75655;SDS011;64252;51.094;13.714;2023-03-05T03:43:04;10.35;;;1.67;;
75655;SDS011;64252;51.094;13.714;2023-03-05T03:45:30;8.40;;;1.08;;
75655;SDS011;64252;51.094;13.714;2023-03-05T03:47:56;8.32;;;1.90;;
75655;SDS011;64252;51.094;13.714;2023-03-05T03:50:22;5.07;;;1.20;;
75655;SDS011;64252;51.094;13.714;2023-03-05T03:52:49;6.95;;;1.40;;
75655;SDS011;64252;51.094;13.714;2023-03-05T03:55:15;7.28;;;1.30;;
75655;SDS011;64252;51.094;13.714;2023-03-05T03:57:40;6.43;;;1.00;;
75655;SDS011;64252;51.094;13.714;2023-03-05T04:00:07;4.60;;;0.73;;
75655;SDS011;64252;51.094;13.714;2023-03-05T04:02:38;7.97;;;1.70;;
75655;SDS011;64252;51.094;13.714;2023-03-05T04:05:03;5.25;;;1.00;;
75655;SDS011;64252;51.094;13.714;2023-03-05T04:07:30;8.77;;;1.40;;
75655;SDS011;64252;51.094;13.714;2023-03-05T04:09:55;9.55;;;1.50;;
75655;SDS011;64252;51.094;13.714;2023-03-05T04:12:21;8.45;;;1.08;;
75655;SDS011;64252;51.094;13.714;2023-03-05T04:14:47;7.60;;;1.10;;
75655;SDS011;64252;51.094;13.714;2023-03-05T04:17:13;5.22;;;0.85;;
75655;SDS011;64252;51.094;13.714;2023-03-05T04:19:40;7.45;;;1.13;;
75655;SDS011;64252;51.094;13.714;2023-03-05T04:22:06;4.22;;;0.80;;
75655;SDS011;64252;51.094;13.714;2023-03-05T04:24:35;3.90;;;1.00;;
75655;SDS011;64252;51.094;13.714;2023-03-05T04:27:00;6.93;;;1.02;;
75655;SDS011;64252;51.094;13.714;2023-03-05T04:29:26;5.68;;;0.77;;
75655;SDS011;64252;51.094;13.714;2023-03-05T04:31:51;6.03;;;1.02;;
75655;SDS011;64252;51.094;13.714;2023-03-05T04:34:17;5.93;;;0.88;;
75655;SDS011;64252;51.094;13.714;2023-03-05T04:36:42;6.78;;;1.30;;
75655;SDS011;64252;51.094;13.714;2023-03-05T04:39:08;4.25;;;1.00;;
75655;SDS011;64252;51.094;13.714;2023-03-05T04:41:34;1.95;;;0.70;;
75655;SDS011;64252;51.094;13.714;2023-03-05T04:43:59;5.45;;;0.90;;
75655;SDS011;64252;51.094;13.714;2023-03-05T04:46:25;6.15;;;1.02;;
75655;SDS011;64252;51.094;13.714;2023-03-05T04:48:50;4.93;;;0.95;;
75655;SDS011;64252;51.094;13.714;2023-03-05T04:51:16;4.45;;;0.85;;
75655;SDS011;64252;51.094;13.714;2023-03-05T04:53:41;5.07;;;1.40;;
75655;SDS011;64252;51.094;13.714;2023-03-05T04:56:07;6.25;;;1.20;;
75655;SDS011;64252;51.094;13.714;2023-03-05T04:58:32;2.75;;;0.82;;
75655;SDS011;64252;51.094;13.714;2023-03-05T05:01:04;6.90;;;1.90;;
75655;SDS011;64252;51.094;13.714;2023-03-05T05:03:36;3.75;;;1.10;;
75655;SDS011;64252;51.094;13.714;2023-03-05T05:06:02;5.22;;;1.02;;
75655;SDS011;64252;51.094;13.714;2023-03-05T05:08:27;3.65;;;0.90;;
75655;SDS011;64252;51.094;13.714;2023-03-05T05:13:27;8.10;;;1.42;;
75655;SDS011;64252;51.094;13.714;2023-03-05T05:15:54;9.55;;;1.48;;
75655;SDS011;64252;51.094;13.714;2023-03-05T05:18:23;8.35;;;1.48;;
75655;SDS011;64252;51.094;13.714;2023-03-05T05:20:49;5.43;;;1.48;;
75655;SDS011;64252;51.094;13.714;2023-03-05T05:23:15;5.78;;;1.73;;
75655;SDS011;64252;51.094;13.714;2023-03-05T05:34:14;4.43;;;1.10;;
75655;SDS011;64252;51.094;13.714;2023-03-05T05:40:27;4.97;;;1.00;;
75655;SDS011;64252;51.094;13.714;2023-03-05T05:54:08;4.93;;;1.20;;
75655;SDS011;64252;51.094;13.714;2023-03-05T06:15:04;5.38;;;1.30;;
75655;SDS011;64252;51.094;13.714;2023-03-05T07:00:56;5.90;;;0.93;;
75655;SDS011;64252;51.094;13.714;2023-03-05T07:03:22;3.20;;;0.93;;
75655;SDS011;64252;51.094;13.714;2023-03-05T07:05:49;3.60;;;0.90;;
75655;SDS011;64252;51.094;13.714;2023-03-05T07:08:22;2.33;;;0.63;;
75655;SDS011;64252;51.094;13.714;2023-03-05T07:10:50;2.40;;;0.82;;
75655;SDS011;64252;51.094;13.714;2023-03-05T07:13:16;3.88;;;0.95;;
75655;SDS011;64252;51.094;13.714;2023-03-05T07:15:43;2.92;;;0.60;;
75655;SDS011;64252;51.094;13.714;2023-03-05T07:18:16;5.95;;;1.63;;
75655;SDS011;64252;51.094;13.714;2023-03-05T07:20:41;2.97;;;0.70;;
75655;SDS011;64252;51.094;13.714;2023-03-05T07:23:07;4.68;;;0.82;;
75655;SDS011;64252;51.094;13.714;2023-03-05T07:25:36;3.88;;;1.00;;
75655;SDS011;64252;51.094;13.714;2023-03-05T07:28:05;4.18;;;0.77;;
75655;SDS011;64252;51.094;13.714;2023-03-05T07:30:35;3.78;;;0.98;;
75655;SDS011;64252;51.094;13.714;2023-03-05T07:33:18;3.60;;;1.00;;
75655;SDS011;64252;51.094;13.714;2023-03-05T07:35:45;6.43;;;1.95;;
75655;SDS011;64252;51.094;13.714;2023-03-05T07:38:13;8.48;;;3.10;;
75655;SDS011;64252;51.094;13.714;2023-03-05T07:40:39;6.60;;;2.55;;
75655;SDS011;64252;51.094;13.714;2023-03-05T07:43:04;2.90;;;1.05;;
75655;SDS011;64252;51.094;13.714;2023-03-05T07:45:33;4.25;;;1.50;;
75655;SDS011;64252;51.094;13.714;2023-03-05T07:47:58;5.70;;;2.25;;
75655;SDS011;64252;51.094;13.714;2023-03-05T07:50:24;9.95;;;3.30;;
75655;SDS011;64252;51.094;13.714;2023-03-05T07:52:49;7.38;;;3.75;;
75655;SDS011;64252;51.094;13.714;2023-03-05T07:55:15;7.63;;;3.38;;
75655;SDS011;64252;51.094;13.714;2023-03-05T07:57:41;5.88;;;3.03;;
75655;SDS011;64252;51.094;13.714;2023-03-05T08:00:11;5.38;;;2.17;;
75655;SDS011;64252;51.094;13.714;2023-03-05T08:02:37;4.78;;;1.42;;
75655;SDS011;64252;51.094;13.714;2023-03-05T08:05:04;7.25;;;1.90;;
75655;SDS011;64252;51.094;13.714;2023-03-05T08:07:30;4.40;;;1.85;;
75655;SDS011;64252;51.094;13.714;2023-03-05T08:09:56;4.22;;;2.15;;
75655;SDS011;64252;51.094;13.714;2023-03-05T08:12:24;4.55;;;1.30;;
75655;SDS011;64252;51.094;13.714;2023-03-05T08:14:50;3.80;;;1.80;;
75655;SDS011;64252;51.094;13.714;2023-03-05T08:17:19;4.97;;;1.52;;
75655;SDS011;64252;51.094;13.714;2023-03-05T08:19:45;7.07;;;2.30;;
75655;SDS011;64252;51.094;13.714;2023-03-05T08:22:12;5.88;;;2.70;;
75655;SDS011;64252;51.094;13.714;2023-03-05T08:24:40;15.45;;;4.97;;
75655;SDS011;64252;51.094;13.714;2023-03-05T08:27:07;5.68;;;1.52;;
75655;SDS011;64252;51.094;13.714;2023-03-05T08:29:33;4.97;;;1.20;;
75655;SDS011;64252;51.094;13.714;2023-03-05T08:32:16;5.53;;;1.75;;
75655;SDS011;64252;51.094;13.714;2023-03-05T08:34:41;3.05;;;0.77;;
75655;SDS011;64252;51.094;13.714;2023-03-05T08:37:09;3.75;;;0.80;;
75655;SDS011;64252;51.094;13.714;2023-03-05T08:39:35;4.53;;;0.90;;
75655;SDS011;64252;51.094;13.714;2023-03-05T08:42:01;2.45;;;0.93;;
75655;SDS011;64252;51.094;13.714;2023-03-05T08:44:30;7.43;;;2.67;;
75655;SDS011;64252;51.094;13.714;2023-03-05T08:46:57;5.30;;;1.20;;
75655;SDS011;64252;51.094;13.714;2023-03-05T08:49:24;6.40;;;1.48;;
75655;SDS011;64252;51.094;13.714;2023-03-05T08:51:49;8.18;;;2.63;;
75655;SDS011;64252;51.094;13.714;2023-03-05T08:54:15;4.90;;;1.67;;
75655;SDS011;64252;51.094;13.714;2023-03-05T08:56:40;5.68;;;1.83;;
75655;SDS011;64252;51.094;13.714;2023-03-05T08:59:06;4.13;;;1.30;;
75655;SDS011;64252;51.094;13.714;2023-03-05T09:01:33;5.28;;;1.73;;
75655;SDS011;64252;51.094;13.714;2023-03-05T09:03:59;6.35;;;2.10;;
75655;SDS011;64252;51.094;13.714;2023-03-05T09:06:27;9.25;;;4.15;;
75655;SDS011;64252;51.094;13.714;2023-03-05T09:08:53;9.00;;;2.90;;
75655;SDS011;64252;51.094;13.714;2023-03-05T09:11:19;6.93;;;2.28;;
75655;SDS011;64252;51.094;13.714;2023-03-05T09:16:16;6.22;;;2.78;;
75655;SDS011;64252;51.094;13.714;2023-03-05T09:18:47;6.55;;;2.70;;
75655;SDS011;64252;51.094;13.714;2023-03-05T09:21:14;5.53;;;2.58;;
75655;SDS011;64252;51.094;13.714;2023-03-05T09:29:29;5.78;;;2.15;;
75655;SDS011;64252;51.094;13.714;2023-03-05T10:52:09;6.15;;;1.40;;
75655;SDS011;64252;51.094;13.714;2023-03-05T10:54:46;2.63;;;1.00;;
75655;SDS011;64252;51.094;13.714;2023-03-05T10:57:21;3.67;;;1.63;;
75655;SDS011;64252;51.094;13.714;2023-03-05T11:02:55;5.97;;;1.60;;
75655;SDS011;64252;51.094;13.714;2023-03-05T11:08:32;4.95;;;1.60;;
75655;SDS011;64252;51.094;13.714;2023-03-05T11:13:43;4.78;;;2.13;;
75655;SDS011;64252;51.094;13.714;2023-03-05T11:16:24;3.60;;;1.38;;
75655;SDS011;64252;51.094;13.714;2023-03-05T11:18:51;7.38;;;1.70;;
75655;SDS011;64252;51.094;13.714;2023-03-05T11:21:40;7.00;;;1.73;;
75655;SDS011;64252;51.094;13.714;2023-03-05T11:24:17;4.70;;;1.63;;
75655;SDS011;64252;51.094;13.714;2023-03-05T11:26:51;3.33;;;1.30;;
75655;SDS011;64252;51.094;13.714;2023-03-05T11:29:23;3.72;;;1.30;;
75655;SDS011;64252;51.094;13.714;2023-03-05T11:32:14;3.35;;;1.30;;
75655;SDS011;64252;51.094;13.714;2023-03-05T11:34:44;6.35;;;1.90;;
75655;SDS011;64252;51.094;13.714;2023-03-05T11:37:17;4.97;;;1.33;;
75655;SDS011;64252;51.094;13.714;2023-03-05T11:39:49;4.43;;;1.30;;
75655;SDS011;64252;51.094;13.714;2023-03-05T11:42:42;5.13;;;2.20;;
75655;SDS011;64252;51.094;13.714;2023-03-05T11:45:29;5.15;;;2.30;;
75655;SDS011;64252;51.094;13.714;2023-03-05T11:48:17;5.45;;;2.10;;
75655;SDS011;64252;51.094;13.714;2023-03-05T11:51:12;3.55;;;1.48;;
75655;SDS011;64252;51.094;13.714;2023-03-05T11:53:43;4.15;;;1.88;;
75655;SDS011;64252;51.094;13.714;2023-03-05T11:59:16;5.15;;;2.00;;
75655;SDS011;64252;51.094;13.714;2023-03-05T12:01:46;3.67;;;1.27;;
75655;SDS011;64252;51.094;13.714;2023-03-05T12:04:16;4.75;;;1.75;;
75655;SDS011;64252;51.094;13.714;2023-03-05T12:06:58;4.07;;;1.88;;
75655;SDS011;64252;51.094;13.714;2023-03-05T12:12:19;5.60;;;2.00;;
75655;SDS011;64252;51.094;13.714;2023-03-05T12:18:04;6.25;;;2.50;;
75655;SDS011;64252;51.094;13.714;2023-03-05T12:20:53;4.45;;;2.10;;
75655;SDS011;64252;51.094;13.714;2023-03-05T13:13:55;6.22;;;2.05;;
75655;SDS011;64252;51.094;13.714;2023-03-05T13:48:03;4.03;;;2.00;;
75655;SDS011;64252;51.094;13.714;2023-03-05T13:50:35;3.72;;;1.92;;
75655;SDS011;64252;51.094;13.714;2023-03-05T13:53:16;4.47;;;2.08;;
75655;SDS011;64252;51.094;13.714;2023-03-05T13:55:50;5.28;;;2.05;;
75655;SDS011;64252;51.094;13.714;2023-03-05T14:03:52;5.22;;;2.20;;
75655;SDS011;64252;51.094;13.714;2023-03-05T14:06:23;5.18;;;2.25;;
75655;SDS011;64252;51.094;13.714;2023-03-05T14:08:52;6.07;;;2.42;;
75655;SDS011;64252;51.094;13.714;2023-03-05T14:11:23;4.80;;;2.25;;
75655;SDS011;64252;51.094;13.714;2023-03-05T14:13:49;6.22;;;2.13;;
75655;SDS011;64252;51.094;13.714;2023-03-05T14:16:26;5.93;;;2.22;;
75655;SDS011;64252;51.094;13.714;2023-03-05T14:24:20;7.20;;;2.78;;
75655;SDS011;64252;51.094;13.714;2023-03-05T14:26:53;4.43;;;2.40;;
75655;SDS011;64252;51.094;13.714;2023-03-05T14:29:21;4.60;;;2.15;;
75655;SDS011;64252;51.094;13.714;2023-03-05T14:31:54;4.93;;;2.20;;
75655;SDS011;64252;51.094;13.714;2023-03-05T14:37:15;6.10;;;1.80;;
75655;SDS011;64252;51.094;13.714;2023-03-05T14:39:52;5.03;;;1.83;;
75655;SDS011;64252;51.094;13.714;2023-03-05T14:45:13;4.05;;;1.63;;
75655;SDS011;64252;51.094;13.714;2023-03-05T14:47:44;4.57;;;1.60;;
75655;SDS011;64252;51.094;13.714;2023-03-05T14:50:23;4.10;;;1.83;;
75655;SDS011;64252;51.094;13.714;2023-03-05T14:53:23;4.00;;;1.17;;
75655;SDS011;64252;51.094;13.714;2023-03-05T14:55:53;2.50;;;1.23;;
75655;SDS011;64252;51.094;13.714;2023-03-05T14:58:26;4.97;;;2.35;;
75655;SDS011;64252;51.094;13.714;2023-03-05T15:01:02;5.00;;;1.95;;
75655;SDS011;64252;51.094;13.714;2023-03-05T15:03:28;3.45;;;1.60;;
75655;SDS011;64252;51.094;13.714;2023-03-05T15:05:57;8.88;;;3.13;;
75655;SDS011;64252;51.094;13.714;2023-03-05T15:08:25;7.03;;;2.05;;
75655;SDS011;64252;51.094;13.714;2023-03-05T15:10:52;5.15;;;2.30;;
75655;SDS011;64252;51.094;13.714;2023-03-05T15:13:18;5.88;;;2.28;;
75655;SDS011;64252;51.094;13.714;2023-03-05T15:15:46;4.55;;;1.70;;
75655;SDS011;64252;51.094;13.714;2023-03-05T15:18:13;5.25;;;1.92;;
75655;SDS011;64252;51.094;13.714;2023-03-05T15:20:44;3.30;;;1.60;;
75655;SDS011;64252;51.094;13.714;2023-03-05T15:23:17;4.38;;;1.90;;
75655;SDS011;64252;51.094;13.714;2023-03-05T15:25:46;5.00;;;2.22;;
75655;SDS011;64252;51.094;13.714;2023-03-05T15:28:15;4.68;;;2.00;;
75655;SDS011;64252;51.094;13.714;2023-03-05T15:30:42;6.50;;;2.30;;
75655;SDS011;64252;51.094;13.714;2023-03-05T15:33:11;4.85;;;2.20;;
75655;SDS011;64252;51.094;13.714;2023-03-05T15:35:40;4.88;;;1.92;;
75655;SDS011;64252;51.094;13.714;2023-03-05T15:38:07;5.15;;;2.03;;
75655;SDS011;64252;51.094;13.714;2023-03-05T15:40:36;5.40;;;1.55;;
75655;SDS011;64252;51.094;13.714;2023-03-05T15:43:01;4.90;;;2.00;;
75655;SDS011;64252;51.094;13.714;2023-03-05T15:45:28;4.65;;;1.90;;
75655;SDS011;64252;51.094;13.714;2023-03-05T15:47:56;5.53;;;2.00;;
75655;SDS011;64252;51.094;13.714;2023-03-05T15:50:23;4.88;;;2.08;;
75655;SDS011;64252;51.094;13.714;2023-03-05T15:52:49;7.03;;;2.38;;
75655;SDS011;64252;51.094;13.714;2023-03-05T15:55:17;6.88;;;2.20;;
75655;SDS011;64252;51.094;13.714;2023-03-05T15:57:47;6.28;;;2.30;;
75655;SDS011;64252;51.094;13.714;2023-03-05T16:00:14;6.53;;;2.38;;
75655;SDS011;64252;51.094;13.714;2023-03-05T16:02:43;4.78;;;1.98;;
75655;SDS011;64252;51.094;13.714;2023-03-05T16:05:09;4.20;;;1.98;;
75655;SDS011;64252;51.094;13.714;2023-03-05T16:07:35;4.82;;;2.10;;
75655;SDS011;64252;51.094;13.714;2023-03-05T16:10:04;5.95;;;2.30;;
75655;SDS011;64252;51.094;13.714;2023-03-05T16:12:34;6.50;;;2.60;;
75655;SDS011;64252;51.094;13.714;2023-03-05T16:15:09;6.00;;;2.05;;
75655;SDS011;64252;51.094;13.714;2023-03-05T16:17:37;4.85;;;2.38;;
75655;SDS011;64252;51.094;13.714;2023-03-05T16:20:05;5.07;;;2.10;;
75655;SDS011;64252;51.094;13.714;2023-03-05T16:22:31;7.45;;;3.50;;
75655;SDS011;64252;51.094;13.714;2023-03-05T16:24:58;13.50;;;5.60;;
75655;SDS011;64252;51.094;13.714;2023-03-05T16:27:25;12.40;;;7.20;;
75655;SDS011;64252;51.094;13.714;2023-03-05T16:29:51;12.23;;;5.80;;
75655;SDS011;64252;51.094;13.714;2023-03-05T16:32:17;8.48;;;3.85;;
75655;SDS011;64252;51.094;13.714;2023-03-05T16:34:43;7.97;;;3.42;;
75655;SDS011;64252;51.094;13.714;2023-03-05T16:37:09;6.70;;;2.92;;
75655;SDS011;64252;51.094;13.714;2023-03-05T16:39:34;8.88;;;3.17;;
75655;SDS011;64252;51.094;13.714;2023-03-05T16:42:00;5.20;;;2.60;;
75655;SDS011;64252;51.094;13.714;2023-03-05T16:44:26;5.05;;;2.50;;
75655;SDS011;64252;51.094;13.714;2023-03-05T16:46:51;7.03;;;2.53;;
75655;SDS011;64252;51.094;13.714;2023-03-05T16:49:25;7.63;;;3.05;;
75655;SDS011;64252;51.094;13.714;2023-03-05T16:51:52;5.47;;;2.53;;
75655;SDS011;64252;51.094;13.714;2023-03-05T16:54:57;7.60;;;2.80;;
75655;SDS011;64252;51.094;13.714;2023-03-05T16:57:48;6.88;;;2.60;;
75655;SDS011;64252;51.094;13.714;2023-03-05T17:19:49;8.15;;;3.47;;
75655;SDS011;64252;51.094;13.714;2023-03-05T17:22:15;6.70;;;3.20;;
75655;SDS011;64252;51.094;13.714;2023-03-05T17:24:41;5.60;;;3.05;;
75655;SDS011;64252;51.094;13.714;2023-03-05T17:27:07;7.32;;;3.58;;
75655;SDS011;64252;51.094;13.714;2023-03-05T17:29:34;6.57;;;2.67;;
75655;SDS011;64252;51.094;13.714;2023-03-05T17:32:03;4.80;;;2.78;;
75655;SDS011;64252;51.094;13.714;2023-03-05T17:34:30;6.70;;;2.50;;
75655;SDS011;64252;51.094;13.714;2023-03-05T17:36:56;6.93;;;2.08;;
75655;SDS011;64252;51.094;13.714;2023-03-05T17:39:22;4.95;;;1.63;;
75655;SDS011;64252;51.094;13.714;2023-03-05T17:41:47;4.15;;;1.95;;
75655;SDS011;64252;51.094;13.714;2023-03-05T17:44:13;5.90;;;2.40;;
75655;SDS011;64252;51.094;13.714;2023-03-05T17:46:39;4.13;;;1.55;;
75655;SDS011;64252;51.094;13.714;2023-03-05T17:49:06;6.13;;;2.08;;
75655;SDS011;64252;51.094;13.714;2023-03-05T17:51:32;4.43;;;2.05;;
75655;SDS011;64252;51.094;13.714;2023-03-05T17:53:58;6.07;;;2.40;;
75655;SDS011;64252;51.094;13.714;2023-03-05T17:56:24;5.38;;;1.83;;
75655;SDS011;64252;51.094;13.714;2023-03-05T17:58:50;3.95;;;1.80;;
75655;SDS011;64252;51.094;13.714;2023-03-05T18:01:26;5.78;;;2.00;;
75655;SDS011;64252;51.094;13.714;2023-03-05T18:03:54;4.15;;;1.70;;
75655;SDS011;64252;51.094;13.714;2023-03-05T18:06:20;6.35;;;2.50;;
75655;SDS011;64252;51.094;13.714;2023-03-05T18:08:47;4.55;;;1.95;;
75655;SDS011;64252;51.094;13.714;2023-03-05T18:11:14;3.90;;;1.70;;
75655;SDS011;64252;51.094;13.714;2023-03-05T18:13:40;4.65;;;2.00;;
75655;SDS011;64252;51.094;13.714;2023-03-05T18:16:08;4.28;;;1.85;;
75655;SDS011;64252;51.094;13.714;2023-03-05T18:18:35;4.60;;;1.70;;
75655;SDS011;64252;51.094;13.714;2023-03-05T18:21:05;3.72;;;1.80;;
75655;SDS011;64252;51.094;13.714;2023-03-05T18:23:32;6.35;;;1.70;;
75655;SDS011;64252;51.094;13.714;2023-03-05T18:25:58;4.97;;;2.40;;
75655;SDS011;64252;51.094;13.714;2023-03-05T18:28:24;5.80;;;2.03;;
75655;SDS011;64252;51.094;13.714;2023-03-05T18:30:50;6.38;;;2.45;;
75655;SDS011;64252;51.094;13.714;2023-03-05T18:33:18;6.70;;;2.25;;
75655;SDS011;64252;51.094;13.714;2023-03-05T18:35:46;3.88;;;1.42;;
75655;SDS011;64252;51.094;13.714;2023-03-05T18:38:19;4.75;;;2.55;;
75655;SDS011;64252;51.094;13.714;2023-03-05T18:40:46;9.50;;;2.22;;
75655;SDS011;64252;51.094;13.714;2023-03-05T18:43:15;7.78;;;2.33;;
75655;SDS011;64252;51.094;13.714;2023-03-05T18:45:47;5.75;;;2.22;;
75655;SDS011;64252;51.094;13.714;2023-03-05T18:48:17;7.60;;;2.17;;
75655;SDS011;64252;51.094;13.714;2023-03-05T18:50:44;7.32;;;2.13;;
75655;SDS011;64252;51.094;13.714;2023-03-05T18:53:11;5.90;;;2.78;;
75655;SDS011;64252;51.094;13.714;2023-03-05T18:55:38;6.15;;;2.60;;
75655;SDS011;64252;51.094;13.714;2023-03-05T18:58:25;9.50;;;3.47;;
75655;SDS011;64252;51.094;13.714;2023-03-05T19:00:52;7.63;;;2.70;;
75655;SDS011;64252;51.094;13.714;2023-03-05T19:03:18;6.35;;;2.85;;
75655;SDS011;64252;51.094;13.714;2023-03-05T19:05:44;5.95;;;2.28;;
75655;SDS011;64252;51.094;13.714;2023-03-05T19:08:10;5.45;;;2.20;;
75655;SDS011;64252;51.094;13.714;2023-03-05T19:10:37;5.90;;;2.63;;
75655;SDS011;64252;51.094;13.714;2023-03-05T19:15:59;8.55;;;2.90;;
75655;SDS011;64252;51.094;13.714;2023-03-05T19:18:27;5.30;;;2.38;;
75655;SDS011;64252;51.094;13.714;2023-03-05T19:20:53;5.85;;;2.60;;
75655;SDS011;64252;51.094;13.714;2023-03-05T19:23:22;7.72;;;2.80;;
75655;SDS011;64252;51.094;13.714;2023-03-05T19:25:49;6.43;;;2.70;;
75655;SDS011;64252;51.094;13.714;2023-03-05T19:28:15;5.45;;;2.53;;
75655;SDS011;64252;51.094;13.714;2023-03-05T19:30:40;9.18;;;3.90;;
75655;SDS011;64252;51.094;13.714;2023-03-05T19:33:06;10.13;;;4.18;;
75655;SDS011;64252;51.094;13.714;2023-03-05T19:35:32;7.80;;;3.28;;
75655;SDS011;64252;51.094;13.714;2023-03-05T19:37:58;8.43;;;3.53;;
75655;SDS011;64252;51.094;13.714;2023-03-05T19:44:15;6.47;;;2.72;;
75655;SDS011;64252;51.094;13.714;2023-03-05T19:49:08;6.65;;;2.70;;
75655;SDS011;64252;51.094;13.714;2023-03-05T19:51:34;7.75;;;3.00;;
75655;SDS011;64252;51.094;13.714;2023-03-05T19:54:00;7.25;;;3.03;;
75655;SDS011;64252;51.094;13.714;2023-03-05T19:56:28;6.13;;;2.85;;
75655;SDS011;64252;51.094;13.714;2023-03-05T19:58:54;6.57;;;3.13;;
75655;SDS011;64252;51.094;13.714;2023-03-05T20:01:24;9.57;;;3.33;;
75655;SDS011;64252;51.094;13.714;2023-03-05T20:03:54;7.55;;;2.85;;
75655;SDS011;64252;51.094;13.714;2023-03-05T20:06:21;8.40;;;3.42;;
75655;SDS011;64252;51.094;13.714;2023-03-05T20:08:48;7.05;;;2.67;;